createdAt,value
2023-03-12T00:02:01.115Z,45.40
2023-03-12T00:04:28.570Z,41.03
2023-03-12T00:07:15.627Z,38.78
2023-03-12T00:09:42.428Z,39.80
2023-03-12T00:12:09.557Z,38.03
2023-03-12T00:14:36.437Z,35.10
2023-03-12T00:17:03.323Z,33.42
2023-03-12T00:19:30.958Z,31.63
2023-03-12T00:21:57.918Z,30.10
2023-03-12T00:24:24.786Z,32.00
2023-03-12T00:26:51.531Z,30.52
2023-03-12T00:29:18.265Z,26.05
2023-03-12T00:31:45.619Z,25.67
2023-03-12T00:34:12.454Z,25.92
2023-03-12T00:36:41.402Z,23.88
2023-03-12T00:39:08.356Z,22.98
2023-03-12T00:41:35.153Z,24.33
2023-03-12T00:44:02.041Z,23.15
2023-03-12T00:46:29.101Z,24.65
2023-03-12T00:48:55.917Z,26.25
2023-03-12T00:55:27.599Z,27.65
2023-03-12T00:57:55.524Z,28.77
2023-03-12T01:15:28.115Z,29.38
2023-03-12T01:17:59.962Z,27.77
2023-03-12T06:07:29.007Z,17.00
2023-03-12T06:09:55.992Z,17.40
2023-03-12T06:12:36.569Z,14.55
2023-03-12T06:15:16.065Z,14.75
2023-03-12T06:17:43.124Z,14.25
2023-03-12T06:20:11.601Z,12.80
2023-03-12T06:22:38.811Z,12.20
2023-03-12T06:25:05.833Z,11.98
2023-03-12T06:27:32.943Z,10.80
2023-03-12T06:29:59.751Z,11.45
2023-03-12T06:32:26.525Z,10.48
2023-03-12T06:34:53.528Z,9.07
2023-03-12T06:37:20.220Z,7.55
2023-03-12T06:39:46.983Z,9.38
2023-03-12T06:42:14.867Z,8.60
2023-03-12T06:44:41.720Z,7.95
2023-03-12T06:47:08.870Z,6.72
2023-03-12T06:49:36.819Z,6.82
2023-03-12T06:52:04.322Z,7.03
2023-03-12T06:54:32.101Z,6.95
2023-03-12T06:57:01.996Z,6.63
2023-03-12T06:59:29.455Z,6.13
2023-03-12T07:01:57.183Z,6.32
2023-03-12T07:04:24.375Z,6.68
2023-03-12T07:06:51.816Z,7.30
2023-03-12T07:09:29.089Z,6.72
2023-03-12T07:11:56.290Z,6.40
2023-03-12T07:14:23.990Z,7.00
2023-03-12T07:16:51.579Z,6.53
2023-03-12T07:19:19.768Z,5.65
2023-03-12T07:21:46.893Z,5.85
2023-03-12T07:24:14.122Z,5.78
2023-03-12T07:26:41.113Z,4.97
2023-03-12T07:29:08.397Z,4.68
2023-03-12T07:31:55.606Z,4.82
2023-03-12T07:34:22.632Z,4.20
2023-03-12T07:36:50.900Z,3.20
2023-03-12T07:39:19.514Z,3.60
2023-03-12T07:41:46.846Z,3.30
2023-03-12T07:44:14.130Z,3.22
2023-03-12T07:46:41.276Z,3.13
2023-03-12T07:49:08.624Z,2.95
2023-03-12T07:51:36.010Z,2.83
2023-03-12T07:54:03.145Z,3.10
2023-03-12T07:56:30.336Z,2.97
2023-03-12T07:58:57.925Z,3.28
2023-03-12T08:01:32.225Z,3.17
2023-03-12T08:04:19.921Z,3.30
2023-03-12T08:06:47.284Z,3.63
2023-03-12T08:09:14.672Z,2.72
2023-03-12T08:11:41.714Z,3.28
2023-03-12T08:14:09.405Z,3.38
2023-03-12T08:16:36.885Z,2.88
2023-03-12T08:19:03.802Z,3.40
2023-03-12T08:21:30.872Z,2.60
2023-03-12T08:23:57.928Z,2.80
2023-03-12T08:26:25.175Z,2.63
2023-03-12T08:28:52.125Z,2.72
2023-03-12T08:31:19.161Z,2.80
2023-03-12T08:33:47.455Z,3.20
2023-03-12T08:36:14.798Z,2.88
2023-03-12T08:38:41.952Z,2.83
2023-03-12T08:41:08.981Z,3.22
2023-03-12T08:43:36.136Z,2.90
2023-03-12T08:46:03.889Z,3.22
2023-03-12T08:48:48.436Z,3.58
2023-03-12T08:51:16.971Z,2.95
2023-03-12T08:53:45.322Z,3.28
2023-03-12T08:56:12.456Z,3.45
2023-03-12T08:58:39.530Z,3.50
2023-03-12T09:01:13.447Z,3.33
2023-03-12T09:06:51.010Z,3.22
2023-03-12T09:09:18.570Z,2.90
2023-03-12T09:11:47.375Z,2.80
2023-03-12T09:14:57.550Z,2.90
2023-03-12T09:17:02.578Z,2.80
2023-03-12T09:19:30.349Z,3.38
2023-03-12T09:21:58.209Z,3.13
2023-03-12T09:24:25.569Z,3.13
2023-03-12T09:26:53.069Z,2.80
2023-03-12T09:29:20.115Z,2.80
2023-03-12T09:31:47.022Z,2.95
2023-03-12T09:40:52.276Z,2.50
2023-03-12T09:43:32.170Z,3.63
2023-03-12T09:46:14.008Z,3.80
2023-03-12T09:48:48.532Z,4.22
2023-03-12T09:51:38.190Z,3.17
2023-03-12T09:54:13.686Z,2.92
2023-03-12T09:57:01.549Z,3.25
2023-03-12T10:02:40.507Z,2.53
2023-03-12T10:11:32.453Z,3.05
2023-03-12T10:14:25.373Z,2.70
2023-03-12T10:17:15.464Z,3.10
2023-03-12T10:19:53.215Z,2.88
2023-03-12T10:25:24.627Z,3.20
2023-03-12T10:27:59.244Z,3.42
2023-03-12T10:30:30.041Z,4.10
2023-03-12T10:33:04.782Z,3.45
2023-03-12T10:35:34.704Z,4.07
2023-03-12T10:38:07.160Z,4.30
2023-03-12T10:40:40.160Z,4.68
2023-03-12T10:45:56.383Z,3.50
2023-03-12T10:48:24.934Z,3.40
2023-03-12T10:51:11.503Z,3.40
2023-03-12T10:53:48.416Z,3.05
2023-03-12T10:56:23.536Z,3.72
2023-03-12T11:01:56.394Z,3.78
2023-03-12T11:04:30.448Z,3.72
2023-03-12T11:07:15.735Z,3.42
2023-03-12T11:09:42.940Z,3.60
2023-03-12T11:12:26.981Z,3.80
2023-03-12T11:14:54.499Z,4.45
2023-03-12T11:17:24.132Z,4.03
2023-03-12T11:19:51.791Z,3.75
2023-03-12T11:22:32.510Z,3.63
2023-03-12T11:25:04.539Z,4.72
2023-03-12T11:27:33.375Z,4.38
2023-03-12T11:33:02.921Z,4.22
2023-03-12T11:35:46.263Z,4.93
2023-03-12T11:38:18.962Z,4.90
2023-03-12T11:41:04.784Z,4.70
2023-03-12T11:43:53.297Z,4.35
2023-03-12T11:46:24.330Z,4.20
2023-03-12T11:48:57.604Z,4.85
2023-03-12T11:51:36.479Z,4.78
2023-03-12T11:54:04.934Z,4.43
2023-03-12T11:56:43.931Z,3.88
2023-03-12T11:59:49.496Z,4.45
2023-03-12T12:02:28.473Z,4.30
2023-03-12T12:05:01.703Z,4.82
2023-03-12T12:07:29.079Z,4.40
2023-03-12T12:10:02.496Z,4.32
2023-03-12T12:12:48.342Z,4.88
2023-03-12T12:15:36.374Z,4.40
2023-03-12T12:18:30.128Z,4.93
2023-03-12T12:23:31.101Z,5.60
2023-03-12T12:26:09.314Z,5.22
2023-03-12T12:28:44.856Z,5.57
2023-03-12T12:31:34.093Z,5.75
2023-03-12T12:34:07.931Z,6.15
2023-03-12T12:36:35.908Z,5.97
2023-03-12T12:39:16.099Z,5.70
2023-03-12T12:41:46.549Z,5.80
2023-03-12T12:44:28.737Z,5.50
2023-03-12T12:47:04.006Z,5.70
2023-03-12T12:49:34.157Z,5.00
2023-03-12T12:52:03.547Z,5.80
2023-03-12T12:54:36.811Z,6.55
2023-03-12T12:57:09.055Z,5.38
2023-03-12T12:59:40.019Z,5.15
2023-03-12T13:02:28.432Z,4.95
2023-03-12T13:04:56.568Z,4.88
2023-03-12T13:07:25.792Z,4.72
2023-03-12T13:09:56.770Z,5.63
2023-03-12T13:12:36.277Z,5.22
2023-03-12T13:15:23.498Z,5.28
2023-03-12T13:18:03.133Z,5.03
2023-03-12T13:20:35.730Z,5.32
2023-03-12T13:23:03.000Z,5.03
2023-03-12T13:25:41.492Z,5.13
2023-03-12T13:28:30.390Z,5.82
2023-03-12T13:30:58.882Z,5.38
2023-03-12T13:33:42.297Z,5.80
2023-03-12T13:36:12.397Z,5.82
2023-03-12T13:38:53.821Z,6.38
2023-03-12T13:41:50.172Z,5.97
2023-03-12T13:44:23.437Z,5.97
2023-03-12T13:47:43.113Z,6.05
2023-03-12T13:50:19.024Z,5.95
2023-03-12T13:53:11.514Z,5.57
2023-03-12T13:55:39.442Z,5.85
2023-03-12T13:58:16.017Z,6.15
2023-03-12T14:00:57.052Z,5.50
2023-03-12T14:03:24.577Z,6.22
2023-03-12T14:05:58.604Z,5.53
2023-03-12T14:08:31.691Z,6.30
2023-03-12T14:10:59.441Z,6.35
2023-03-12T14:13:29.386Z,6.40
2023-03-12T14:15:56.871Z,6.70
2023-03-12T14:18:25.862Z,6.25
2023-03-12T14:20:55.121Z,6.30
2023-03-12T14:23:25.308Z,6.95
2023-03-12T14:25:55.891Z,6.10
2023-03-12T14:28:24.990Z,6.28
2023-03-12T14:30:58.168Z,5.75
2023-03-12T14:33:26.366Z,6.87
2023-03-12T14:36:01.941Z,6.07
2023-03-12T14:38:50.931Z,6.25
2023-03-12T14:41:21.121Z,6.05
2023-03-12T14:43:51.692Z,6.25
2023-03-12T14:46:20.298Z,6.53
2023-03-12T14:48:48.393Z,6.82
2023-03-12T14:51:26.078Z,6.55
2023-03-12T14:53:53.370Z,6.28
2023-03-12T14:56:30.338Z,5.85
2023-03-12T14:58:58.817Z,5.70
2023-03-12T15:01:27.792Z,5.80
2023-03-12T15:03:57.528Z,5.70
2023-03-12T15:06:28.155Z,6.28
2023-03-12T15:08:55.476Z,6.45
2023-03-12T15:11:24.125Z,6.13
2023-03-12T15:13:52.203Z,5.43
2023-03-12T15:16:19.822Z,6.00
2023-03-12T15:18:48.948Z,6.25
2023-03-12T15:21:16.336Z,7.18
2023-03-12T15:23:44.792Z,6.85
2023-03-12T15:26:21.231Z,5.85
2023-03-12T15:29:14.952Z,6.05
2023-03-12T15:31:47.056Z,6.53
2023-03-12T15:34:26.271Z,8.73
2023-03-12T15:36:55.111Z,6.32
2023-03-12T15:39:32.355Z,6.57
2023-03-12T15:42:07.876Z,6.45
2023-03-12T15:44:45.433Z,5.75
2023-03-12T15:47:18.285Z,5.45
2023-03-12T15:49:49.599Z,5.78
2023-03-12T15:52:22.194Z,5.93
2023-03-12T15:55:01.220Z,5.88
2023-03-12T15:57:47.321Z,5.57
2023-03-12T16:00:14.639Z,6.05
2023-03-12T16:02:55.338Z,5.70
2023-03-12T16:05:25.139Z,5.70
2023-03-12T16:07:52.322Z,5.68
2023-03-12T16:10:20.145Z,5.35
2023-03-12T16:12:47.585Z,7.18
2023-03-12T16:15:22.339Z,6.15
2023-03-12T16:17:49.819Z,4.82
2023-03-12T16:20:18.061Z,5.10
2023-03-12T16:22:45.141Z,6.10
2023-03-12T16:25:13.327Z,5.70
2023-03-12T16:27:46.521Z,5.07
2023-03-12T16:30:15.617Z,5.28
2023-03-12T16:32:42.772Z,5.97
2023-03-12T16:35:15.470Z,5.97
2023-03-12T16:37:42.878Z,5.90
2023-03-12T16:40:11.816Z,5.90
2023-03-12T16:42:44.456Z,6.05
2023-03-12T16:45:14.224Z,6.13
2023-03-12T16:47:42.691Z,5.85
2023-03-12T16:50:16.992Z,5.80
2023-03-12T16:52:47.156Z,5.72
2023-03-12T16:55:15.108Z,7.43
2023-03-12T16:58:02.022Z,6.97
2023-03-12T17:00:39.383Z,6.40
2023-03-12T17:03:39.580Z,7.68
2023-03-12T17:06:14.013Z,9.63
2023-03-12T17:08:43.695Z,8.30
2023-03-12T17:11:19.524Z,7.53
2023-03-12T17:13:49.282Z,9.43
2023-03-12T17:16:17.271Z,9.10
2023-03-12T17:18:45.888Z,11.43
2023-03-12T17:21:34.015Z,10.40
2023-03-12T17:24:01.199Z,6.95
2023-03-12T17:26:28.425Z,12.48
2023-03-12T17:28:56.590Z,23.70
2023-03-12T17:31:25.164Z,10.15
2023-03-12T17:33:52.466Z,8.02
2023-03-12T17:36:19.731Z,23.80
2023-03-12T17:38:48.958Z,8.40
2023-03-12T17:41:26.002Z,9.27
2023-03-12T17:43:55.131Z,9.85
2023-03-12T17:46:22.473Z,8.43
2023-03-12T17:48:49.722Z,11.38
2023-03-12T17:51:17.016Z,8.23
2023-03-12T17:53:50.463Z,8.00
2023-03-12T17:56:32.580Z,7.85
2023-03-12T17:59:01.329Z,9.00
2023-03-12T18:01:29.420Z,8.60
2023-03-12T18:04:01.507Z,8.00
2023-03-12T18:06:29.301Z,8.45
2023-03-12T18:08:56.599Z,8.23
2023-03-12T18:11:23.879Z,15.60
2023-03-12T18:13:53.022Z,9.70
2023-03-12T18:16:21.462Z,14.23
2023-03-12T18:18:50.985Z,14.32
2023-03-12T18:21:21.475Z,12.60
2023-03-12T18:23:48.758Z,11.25
2023-03-12T18:26:16.119Z,12.45
2023-03-12T18:28:43.303Z,9.55
2023-03-12T18:31:11.263Z,14.10
2023-03-12T18:33:39.628Z,20.45
2023-03-12T18:36:08.894Z,16.65
2023-03-12T18:39:10.332Z,18.90
2023-03-12T18:41:41.848Z,12.77
2023-03-12T18:44:09.210Z,9.73
2023-03-12T18:46:40.190Z,14.18
2023-03-12T18:49:12.993Z,15.70
2023-03-12T19:02:39.218Z,11.65
2023-03-12T19:05:12.692Z,9.57
2023-03-12T19:10:33.486Z,11.32
2023-03-12T19:13:02.212Z,10.88
2023-03-12T19:21:07.936Z,14.77
2023-03-12T19:23:36.726Z,14.63
2023-03-12T19:26:04.957Z,12.88
2023-03-12T19:28:32.868Z,10.98
2023-03-12T19:31:02.084Z,10.90
2023-03-12T19:33:31.320Z,15.82
2023-03-12T20:05:54.022Z,11.50
2023-03-12T20:08:22.510Z,10.88
2023-03-12T20:10:49.664Z,10.38
2023-03-12T20:13:17.858Z,10.48
2023-03-12T20:15:46.957Z,9.88
2023-03-12T20:18:14.452Z,10.57
2023-03-12T20:20:41.885Z,11.18
2023-03-12T20:23:08.982Z,10.13
2023-03-12T20:25:38.685Z,10.50
2023-03-12T20:28:05.492Z,10.60
2023-03-12T20:30:32.489Z,9.57
2023-03-12T20:32:59.478Z,9.02
2023-03-12T20:35:26.325Z,9.10
2023-03-12T20:37:53.262Z,9.38
2023-03-12T20:40:20.029Z,8.95
2023-03-12T20:42:46.756Z,8.43
2023-03-12T20:45:13.672Z,9.20
2023-03-12T20:47:40.373Z,8.50
2023-03-12T20:50:07.682Z,10.98
2023-03-12T20:52:34.356Z,10.05
2023-03-12T20:55:01.060Z,9.60
2023-03-12T20:57:28.240Z,9.65
2023-03-12T20:59:55.258Z,9.40
2023-03-12T21:02:22.162Z,9.63
2023-03-12T21:04:49.566Z,9.50
2023-03-12T21:07:16.337Z,11.18
2023-03-12T21:09:43.014Z,10.05
2023-03-12T21:12:09.672Z,9.80
2023-03-12T21:14:36.786Z,9.07
2023-03-12T21:17:03.809Z,9.80
2023-03-12T21:19:30.697Z,9.10
2023-03-12T21:21:57.442Z,8.05
2023-03-12T21:24:24.146Z,8.73
2023-03-12T21:26:50.838Z,9.25
2023-03-12T21:29:17.857Z,8.43
2023-03-12T21:31:44.649Z,9.25
2023-03-12T21:34:11.378Z,8.02
2023-03-12T21:36:38.167Z,8.88
2023-03-12T21:39:04.933Z,8.13
2023-03-12T21:41:32.104Z,11.32
2023-03-12T21:44:00.572Z,10.35
2023-03-12T21:46:28.001Z,11.38
2023-03-12T21:48:54.881Z,10.45
2023-03-12T21:51:22.780Z,9.48
2023-03-12T21:53:53.443Z,8.07
2023-03-12T21:56:20.254Z,8.85
2023-03-12T21:58:46.981Z,8.20
2023-03-12T22:01:15.356Z,9.43
2023-03-12T22:03:42.703Z,9.95
2023-03-12T22:06:10.199Z,10.68
2023-03-12T22:08:37.153Z,9.77
2023-03-12T22:11:04.831Z,10.13
2023-03-12T22:13:31.689Z,10.57
2023-03-12T22:15:59.756Z,11.73
2023-03-12T22:18:27.341Z,11.20
2023-03-12T22:20:54.954Z,11.57
2023-03-12T22:23:27.320Z,11.38
2023-03-12T22:25:54.076Z,11.20
2023-03-12T22:28:20.975Z,10.45
2023-03-12T22:30:47.930Z,10.70
2023-03-12T22:33:14.639Z,9.70
2023-03-12T22:35:48.186Z,9.73
2023-03-12T22:38:15.009Z,9.52
2023-03-12T22:40:41.853Z,9.73
2023-03-12T22:43:08.695Z,9.90
2023-03-12T22:45:35.839Z,9.20
2023-03-12T22:48:02.720Z,9.20
2023-03-12T22:50:29.875Z,10.15
2023-03-12T22:53:24.991Z,8.95
2023-03-12T22:55:58.908Z,9.73
2023-03-12T22:58:26.197Z,9.32
2023-03-12T23:01:01.457Z,9.88
2023-03-12T23:03:29.331Z,9.30
2023-03-12T23:05:57.293Z,9.75
2023-03-12T23:08:24.361Z,9.10
2023-03-12T23:10:52.197Z,10.02
2023-03-12T23:13:18.943Z,9.73
2023-03-12T23:20:17.403Z,8.40
